^^
Station Historical Data
Daily Summary for October 30, 2017 Units:  Both    English   Metric
« Previous Day
Next Day »
Daily Weekly Monthly Yearly Custom
  High: Low: Average:
Temperature: TemperatureF °F /  -17.8 °C 57.6 °F /  14.2 °C 66.8 °F /  19.3 °C
Dew Point: DewpointF °F /  -17.8 °C 50.2 °F /  10.1 °C 52.8 °F /  11.6 °C
Humidity: Humidity% 36% 62%
Wind Speed: WindSpeedMPHmph /  0km/h - 2.6mph /  4.2km/h
Wind Gust: WindSpeedGustMPHmph /  0km/h - -
Wind- - SE
Pressure: PressureIn in /  0 hPa 29.86 in /  1011.1 hPa -
Precipitation: 0.00 in /  0 mm    
Historical Graphs
 
 
Tabular Data for October 30, 2017
Time Temperature Dew Point Pressure Wind Wind Speed Wind Gust Humidity Rainfall Rate (Hourly) solar Conditions
TemperatureF °F /  -17.8 °C DewpointF °F /  -17.8 °C PressureInin /  0hPa Calm     Humidity% HourlyPrecipInin /  0mm SolarRadiationWatts/m^2 W/m2 Conditions
00:05 60.4 °F /  15.8 °C 54.3 °F /  12.4 °C 30.25in /  1024.3hPa NNE 6.9mph /  11.1km/h 11.0mph /  17.7km/h 80% 0.00in /  0mm 0.0 W/m2
00:10 60.3 °F /  15.7 °C 54.3 °F /  12.4 °C 30.26in /  1024.6hPa East 6.0mph /  9.7km/h 11.0mph /  17.7km/h 81% 0.00in /  0mm 0.0 W/m2
00:16 60.1 °F /  15.6 °C 54.3 °F /  12.4 °C 30.26in /  1024.6hPa ESE 4.0mph /  6.4km/h 17.0mph /  27.4km/h 81% 0.00in /  0mm 0.0 W/m2
00:21 59.7 °F /  15.4 °C 54.0 °F /  12.2 °C 30.25in /  1024.3hPa ESE 6.0mph /  9.7km/h 10.0mph /  16.1km/h 81% 0.00in /  0mm 0.0 W/m2
00:26 59.5 °F /  15.3 °C 54.0 °F /  12.2 °C 30.26in /  1024.6hPa ENE 8.1mph /  13km/h 9.0mph /  14.5km/h 82% 0.00in /  0mm 0.0 W/m2
00:31 59.5 °F /  15.3 °C 54.0 °F /  12.2 °C 30.26in /  1024.6hPa SSE 0.9mph /  1.4km/h 10.0mph /  16.1km/h 82% 0.00in /  0mm 0.0 W/m2
00:36 59.4 °F /  15.2 °C 53.6 °F /  12 °C 30.26in /  1024.6hPa ENE 6.0mph /  9.7km/h 9.0mph /  14.5km/h 81% 0.00in /  0mm 0.0 W/m2
00:41 59.4 °F /  15.2 °C 53.6 °F /  12 °C 30.27in /  1024.9hPa ENE 6.0mph /  9.7km/h 12.0mph /  19.3km/h 81% 0.00in /  0mm 0.0 W/m2
00:46 59.5 °F /  15.3 °C 53.4 °F /  11.9 °C 30.27in /  1024.9hPa ENE 4.9mph /  7.9km/h 9.0mph /  14.5km/h 80% 0.00in /  0mm 0.0 W/m2
00:51 59.5 °F /  15.3 °C 53.4 °F /  11.9 °C 30.27in /  1024.9hPa ENE 6.9mph /  11.1km/h 17.0mph /  27.4km/h 80% 0.00in /  0mm 0.0 W/m2
00:57 59.4 °F /  15.2 °C 53.6 °F /  12 °C 30.27in /  1024.9hPa East 2.9mph /  4.7km/h 10.0mph /  16.1km/h 81% 0.00in /  0mm 0.0 W/m2
01:02 59.2 °F /  15.1 °C 53.6 °F /  12 °C 30.27in /  1024.9hPa SE 4.9mph /  7.9km/h 10.0mph /  16.1km/h 82% 0.00in /  0mm 0.0 W/m2
01:07 59.2 °F /  15.1 °C 53.6 °F /  12 °C 30.27in /  1024.9hPa ENE 2.9mph /  4.7km/h 15.0mph /  24.1km/h 82% 0.00in /  0mm 0.0 W/m2
01:13 58.8 °F /  14.9 °C 53.4 °F /  11.9 °C 30.26in /  1024.6hPa East 4.0mph /  6.4km/h 10.0mph /  16.1km/h 82% 0.00in /  0mm 0.0 W/m2
01:18 58.8 °F /  14.9 °C 53.4 °F /  11.9 °C 30.26in /  1024.6hPa East 2.9mph /  4.7km/h 15.0mph /  24.1km/h 82% 0.00in /  0mm 0.0 W/m2
01:23 58.8 °F /  14.9 °C 53.6 °F /  12 °C 30.26in /  1024.6hPa SSE 8.9mph /  14.3km/h 9.0mph /  14.5km/h 83% 0.00in /  0mm 0.0 W/m2
01:28 58.8 °F /  14.9 °C 53.6 °F /  12 °C 30.25in /  1024.3hPa East 4.9mph /  7.9km/h 8.0mph /  12.9km/h 83% 0.00in /  0mm 0.0 W/m2
01:33 58.8 °F /  14.9 °C 53.6 °F /  12 °C 30.25in /  1024.3hPa NE 0.9mph /  1.4km/h 12.0mph /  19.3km/h 83% 0.00in /  0mm 0.0 W/m2
01:38 58.8 °F /  14.9 °C 53.6 °F /  12 °C 30.25in /  1024.3hPa ENE 2.0mph /  3.2km/h 12.0mph /  19.3km/h 83% 0.00in /  0mm 0.0 W/m2
01:43 58.6 °F /  14.8 °C 53.2 °F /  11.8 °C 30.25in /  1024.3hPa ESE 2.9mph /  4.7km/h 14.0mph /  22.5km/h 82% 0.00in /  0mm 0.0 W/m2
01:48 58.6 °F /  14.8 °C 53.2 °F /  11.8 °C 30.25in /  1024.3hPa ENE 2.9mph /  4.7km/h 10.0mph /  16.1km/h 82% 0.00in /  0mm 0.0 W/m2
01:54 58.6 °F /  14.8 °C 53.2 °F /  11.8 °C 30.24in /  1023.9hPa East 2.9mph /  4.7km/h 13.0mph /  20.9km/h 82% 0.00in /  0mm 0.0 W/m2
01:59 58.5 °F /  14.7 °C 53.1 °F /  11.7 °C 30.24in /  1023.9hPa East 2.9mph /  4.7km/h 13.0mph /  20.9km/h 82% 0.00in /  0mm 0.0 W/m2
02:04 58.5 °F /  14.7 °C 53.1 °F /  11.7 °C 30.23in /  1023.6hPa NNE 6.9mph /  11.1km/h 15.0mph /  24.1km/h 82% 0.00in /  0mm 0.0 W/m2
02:10 58.3 °F /  14.6 °C 52.9 °F /  11.6 °C 30.22in /  1023.2hPa ESE 4.0mph /  6.4km/h 15.0mph /  24.1km/h 82% 0.00in /  0mm 0.0 W/m2
02:15 58.3 °F /  14.6 °C 53.1 °F /  11.7 °C 30.22in /  1023.2hPa SE 6.9mph /  11.1km/h 11.0mph /  17.7km/h 83% 0.00in /  0mm 0.0 W/m2
02:20 57.9 °F /  14.4 °C 52.7 °F /  11.5 °C 30.23in /  1023.6hPa SSW 2.9mph /  4.7km/h 14.0mph /  22.5km/h 83% 0.00in /  0mm 0.0 W/m2
02:26 57.9 °F /  14.4 °C 52.7 °F /  11.5 °C 30.23in /  1023.6hPa ESE 6.0mph /  9.7km/h 12.0mph /  19.3km/h 83% 0.00in /  0mm 0.0 W/m2
02:31 57.7 °F /  14.3 °C 52.7 °F /  11.5 °C 30.23in /  1023.6hPa ESE 2.9mph /  4.7km/h 12.0mph /  19.3km/h 83% 0.00in /  0mm 0.0 W/m2
02:36 57.7 °F /  14.3 °C 52.3 °F /  11.3 °C 30.23in /  1023.6hPa East 2.9mph /  4.7km/h 7.0mph /  11.3km/h 82% 0.00in /  0mm 0.0 W/m2
02:42 57.7 °F /  14.3 °C 52.3 °F /  11.3 °C 30.24in /  1023.9hPa ESE 2.0mph /  3.2km/h 7.0mph /  11.3km/h 82% 0.00in /  0mm 0.0 W/m2
02:47 57.6 °F /  14.2 °C 52.2 °F /  11.2 °C 30.24in /  1023.9hPa Calm   4.0mph /  6.4km/h 82% 0.00in /  0mm 0.0 W/m2
02:52 57.6 °F /  14.2 °C 52.5 °F /  11.4 °C 30.24in /  1023.9hPa Calm   5.0mph /  8km/h 83% 0.00in /  0mm 0.0 W/m2
02:58 57.6 °F /  14.2 °C 52.5 °F /  11.4 °C 30.24in /  1023.9hPa ESE 2.0mph /  3.2km/h 3.0mph /  4.8km/h 83% 0.00in /  0mm 0.0 W/m2
03:03 57.6 °F /  14.2 °C 52.7 °F /  11.5 °C 30.24in /  1023.9hPa ESE 4.0mph /  6.4km/h 5.0mph /  8km/h 84% 0.00in /  0mm 0.0 W/m2
03:08 57.6 °F /  14.2 °C 52.7 °F /  11.5 °C 30.24in /  1023.9hPa NE 2.0mph /  3.2km/h 6.0mph /  9.7km/h 84% 0.00in /  0mm 0.0 W/m2
03:13 57.6 °F /  14.2 °C 52.7 °F /  11.5 °C 30.24in /  1023.9hPa Calm   4.0mph /  6.4km/h 84% 0.00in /  0mm 0.0 W/m2
03:18 57.6 °F /  14.2 °C 52.7 °F /  11.5 °C 30.24in /  1023.9hPa ENE 2.0mph /  3.2km/h 4.0mph /  6.4km/h 84% 0.00in /  0mm 0.0 W/m2
03:23 57.6 °F /  14.2 °C 52.5 °F /  11.4 °C 30.24in /  1023.9hPa ENE 2.9mph /  4.7km/h 5.0mph /  8km/h 83% 0.00in /  0mm 0.0 W/m2
03:28 57.6 °F /  14.2 °C 52.5 °F /  11.4 °C 30.24in /  1023.9hPa NE 6.0mph /  9.7km/h 7.0mph /  11.3km/h 83% 0.00in /  0mm 0.0 W/m2
03:33 57.6 °F /  14.2 °C 52.2 °F /  11.2 °C 30.24in /  1023.9hPa NE 4.9mph /  7.9km/h 9.0mph /  14.5km/h 82% 0.00in /  0mm 0.0 W/m2
03:38 57.7 °F /  14.3 °C 52.3 °F /  11.3 °C 30.24in /  1023.9hPa ENE 4.0mph /  6.4km/h 5.0mph /  8km/h 82% 0.00in /  0mm 0.0 W/m2
03:43 57.7 °F /  14.3 °C 52.3 °F /  11.3 °C 30.23in /  1023.6hPa ENE 2.9mph /  4.7km/h 8.0mph /  12.9km/h 82% 0.00in /  0mm 0.0 W/m2
03:48 57.7 °F /  14.3 °C 52.3 °F /  11.3 °C 30.23in /  1023.6hPa NNE 2.9mph /  4.7km/h 5.0mph /  8km/h 82% 0.00in /  0mm 0.0 W/m2
03:53 57.7 °F /  14.3 °C 52.3 °F /  11.3 °C 30.23in /  1023.6hPa East 2.0mph /  3.2km/h 8.0mph /  12.9km/h 82% 0.00in /  0mm 0.0 W/m2
03:59 57.7 °F /  14.3 °C 52.3 °F /  11.3 °C 30.24in /  1023.9hPa ENE 4.0mph /  6.4km/h 6.0mph /  9.7km/h 82% 0.00in /  0mm 0.0 W/m2
04:04 57.7 °F /  14.3 °C 52.3 °F /  11.3 °C 30.24in /  1023.9hPa NNE 2.9mph /  4.7km/h 4.0mph /  6.4km/h 82% 0.00in /  0mm 0.0 W/m2
04:09 57.7 °F /  14.3 °C 52.3 °F /  11.3 °C 30.24in /  1023.9hPa Calm   4.0mph /  6.4km/h 82% 0.00in /  0mm 0.0 W/m2
04:14 57.7 °F /  14.3 °C 52.0 °F /  11.1 °C 30.24in /  1023.9hPa ESE 0.9mph /  1.4km/h 5.0mph /  8km/h 81% 0.00in /  0mm 0.0 W/m2
04:19 57.7 °F /  14.3 °C 51.6 °F /  10.9 °C 30.24in /  1023.9hPa East 0.9mph /  1.4km/h 6.0mph /  9.7km/h 80% 0.00in /  0mm 0.0 W/m2
04:24 57.9 °F /  14.4 °C 51.4 °F /  10.8 °C 30.24in /  1023.9hPa ESE 4.0mph /  6.4km/h 6.0mph /  9.7km/h 79% 0.00in /  0mm 0.0 W/m2
04:29 58.1 °F /  14.5 °C 51.3 °F /  10.7 °C 30.24in /  1023.9hPa East 4.9mph /  7.9km/h 5.0mph /  8km/h 78% 0.00in /  0mm 0.0 W/m2
04:34 58.3 °F /  14.6 °C 51.1 °F /  10.6 °C 30.24in /  1023.9hPa East 2.0mph /  3.2km/h 4.0mph /  6.4km/h 77% 0.00in /  0mm 0.0 W/m2
04:39 58.5 °F /  14.7 °C 51.3 °F /  10.7 °C 30.24in /  1023.9hPa SSE 0.9mph /  1.4km/h 4.0mph /  6.4km/h 77% 0.00in /  0mm 0.0 W/m2
04:44 58.5 °F /  14.7 °C 50.9 °F /  10.5 °C 30.24in /  1023.9hPa Calm   4.0mph /  6.4km/h 76% 0.00in /  0mm 0.0 W/m2
04:50 58.6 °F /  14.8 °C 51.1 °F /  10.6 °C 30.24in /  1023.9hPa ENE 0.9mph /  1.4km/h 3.0mph /  4.8km/h 76% 0.00in /  0mm 0.0 W/m2
04:55 58.8 °F /  14.9 °C 51.3 °F /  10.7 °C 30.24in /  1023.9hPa Calm   3.0mph /  4.8km/h 76% 0.00in /  0mm 0.0 W/m2
05:00 58.8 °F /  14.9 °C 50.9 °F /  10.5 °C 30.24in /  1023.9hPa Calm   3.0mph /  4.8km/h 75% 0.00in /  0mm 0.0 W/m2
05:05 59.0 °F /  15 °C 51.1 °F /  10.6 °C 30.25in /  1024.3hPa NE 0.9mph /  1.4km/h 3.0mph /  4.8km/h 75% 0.00in /  0mm 0.0 W/m2
05:16 59.4 °F /  15.2 °C 50.4 °F /  10.2 °C 30.25in /  1024.3hPa NE 4.0mph /  6.4km/h 5.0mph /  8km/h 72% 0.00in /  0mm 0.0 W/m2
05:21 59.5 °F /  15.3 °C 50.9 °F /  10.5 °C 30.25in /  1024.3hPa Calm   3.0mph /  4.8km/h 73% 0.00in /  0mm 0.0 W/m2
05:23 59.5 °F /  15.3 °C 50.2 °F /  10.1 °C 29.86in /  1011.1hPa NE 4.9mph /  7.9km/h 7.0mph /  11.3km/h 71% 0.00in /  0mm 0.0 W/m2
05:26 59.7 °F /  15.4 °C 50.4 °F /  10.2 °C 30.25in /  1024.3hPa ENE 4.0mph /  6.4km/h 6.0mph /  9.7km/h 71% 0.00in /  0mm 0.0 W/m2
05:28 59.9 °F /  15.5 °C 50.5 °F /  10.3 °C 30.26in /  1024.6hPa NE 0.9mph /  1.4km/h 7.0mph /  11.3km/h 71% 0.00in /  0mm 0.0 W/m2
05:34 60.1 °F /  15.6 °C 50.7 °F /  10.4 °C 30.26in /  1024.6hPa NE 0.9mph /  1.4km/h 2.0mph /  3.2km/h 71% 0.00in /  0mm 0.0 W/m2
05:39 60.3 °F /  15.7 °C 50.9 °F /  10.5 °C 30.26in /  1024.6hPa East 2.9mph /  4.7km/h 5.0mph /  8km/h 71% 0.00in /  0mm 0.0 W/m2
05:44 60.3 °F /  15.7 °C 50.9 °F /  10.5 °C 30.26in /  1024.6hPa Calm   3.0mph /  4.8km/h 71% 0.00in /  0mm 0.0 W/m2
05:49 60.3 °F /  15.7 °C 50.4 °F /  10.2 °C 30.26in /  1024.6hPa ENE 0.9mph /  1.4km/h 3.0mph /  4.8km/h 70% 0.00in /  0mm 0.0 W/m2
05:54 60.3 °F /  15.7 °C 50.9 °F /  10.5 °C 30.26in /  1024.6hPa Calm     71% 0.00in /  0mm 0.0 W/m2
05:59 60.3 °F /  15.7 °C 50.9 °F /  10.5 °C 30.26in /  1024.6hPa NE 0.9mph /  1.4km/h 4.0mph /  6.4km/h 71% 0.00in /  0mm 0.0 W/m2
06:04 60.3 °F /  15.7 °C 50.9 °F /  10.5 °C 30.27in /  1024.9hPa Calm   1.0mph /  1.6km/h 71% 0.00in /  0mm 0.0 W/m2
06:09 60.3 °F /  15.7 °C 50.9 °F /  10.5 °C 30.27in /  1024.9hPa NE 2.9mph /  4.7km/h 4.0mph /  6.4km/h 71% 0.00in /  0mm 0.0 W/m2
06:14 60.3 °F /  15.7 °C 50.4 °F /  10.2 °C 30.27in /  1024.9hPa ESE 0.9mph /  1.4km/h 4.0mph /  6.4km/h 70% 0.00in /  0mm 0.0 W/m2
06:19 60.3 °F /  15.7 °C 50.4 °F /  10.2 °C 30.27in /  1024.9hPa Calm   5.0mph /  8km/h 70% 0.00in /  0mm 5.0 W/m2
06:25 60.3 °F /  15.7 °C 50.4 °F /  10.2 °C 30.27in /  1024.9hPa NE 2.9mph /  4.7km/h 4.0mph /  6.4km/h 70% 0.00in /  0mm 12.0 W/m2
06:30 60.4 °F /  15.8 °C 50.2 °F /  10.1 °C 30.28in /  1025.3hPa NE 2.0mph /  3.2km/h 5.0mph /  8km/h 69% 0.00in /  0mm 18.0 W/m2
06:36 60.6 °F /  15.9 °C 50.4 °F /  10.2 °C 30.28in /  1025.3hPa NE 4.0mph /  6.4km/h 5.0mph /  8km/h 69% 0.00in /  0mm 26.0 W/m2
06:41 60.8 °F /  16 °C 50.5 °F /  10.3 °C 30.28in /  1025.3hPa NE 2.0mph /  3.2km/h 3.0mph /  4.8km/h 69% 0.00in /  0mm 33.0 W/m2
06:46 61.0 °F /  16.1 °C 50.7 °F /  10.4 °C 30.28in /  1025.3hPa NE 0.9mph /  1.4km/h 4.0mph /  6.4km/h 69% 0.00in /  0mm 42.0 W/m2
06:51 61.0 °F /  16.1 °C 51.1 °F /  10.6 °C 30.29in /  1025.6hPa NE 0.9mph /  1.4km/h 3.0mph /  4.8km/h 70% 0.00in /  0mm 51.0 W/m2
06:56 61.0 °F /  16.1 °C 51.1 °F /  10.6 °C 30.29in /  1025.6hPa Calm   4.0mph /  6.4km/h 70% 0.00in /  0mm 58.0 W/m2
07:01 61.2 °F /  16.2 °C 51.3 °F /  10.7 °C 30.29in /  1025.6hPa Calm   4.0mph /  6.4km/h 70% 0.00in /  0mm 63.0 W/m2
07:06 61.2 °F /  16.2 °C 51.3 °F /  10.7 °C 30.29in /  1025.6hPa North 0.9mph /  1.4km/h 3.0mph /  4.8km/h 70% 0.00in /  0mm 70.0 W/m2
07:12 61.3 °F /  16.3 °C 51.4 °F /  10.8 °C 30.29in /  1025.6hPa NNE 4.0mph /  6.4km/h 4.0mph /  6.4km/h 70% 0.00in /  0mm 77.0 W/m2
07:17 61.3 °F /  16.3 °C 51.4 °F /  10.8 °C 30.29in /  1025.6hPa NNE 2.0mph /  3.2km/h 3.0mph /  4.8km/h 70% 0.00in /  0mm 88.0 W/m2
07:22 61.5 °F /  16.4 °C 51.6 °F /  10.9 °C 30.30in /  1026hPa NNE 4.0mph /  6.4km/h 4.0mph /  6.4km/h 70% 0.00in /  0mm 98.0 W/m2
07:27 61.7 °F /  16.5 °C 51.8 °F /  11 °C 30.30in /  1026hPa Calm   3.0mph /  4.8km/h 70% 0.00in /  0mm 102.0 W/m2
07:32 61.9 °F /  16.6 °C 52.3 °F /  11.3 °C 30.30in /  1026hPa WNW 0.9mph /  1.4km/h 3.0mph /  4.8km/h 71% 0.00in /  0mm 100.0 W/m2
07:37 62.1 °F /  16.7 °C 52.2 °F /  11.2 °C 30.30in /  1026hPa North 0.9mph /  1.4km/h 3.0mph /  4.8km/h 70% 0.00in /  0mm 98.0 W/m2
07:42 62.1 °F /  16.7 °C 52.2 °F /  11.2 °C 30.30in /  1026hPa Calm   3.0mph /  4.8km/h 70% 0.00in /  0mm 104.0 W/m2
07:47 62.2 °F /  16.8 °C 52.0 °F /  11.1 °C 30.31in /  1026.3hPa NNW 2.0mph /  3.2km/h 5.0mph /  8km/h 69% 0.00in /  0mm 120.0 W/m2
07:52 62.4 °F /  16.9 °C 52.2 °F /  11.2 °C 30.31in /  1026.3hPa Calm   1.0mph /  1.6km/h 69% 0.00in /  0mm 142.0 W/m2
07:58 62.6 °F /  17 °C 52.3 °F /  11.3 °C 30.31in /  1026.3hPa Calm   3.0mph /  4.8km/h 69% 0.00in /  0mm 156.0 W/m2
08:03 62.8 °F /  17.1 °C 52.0 °F /  11.1 °C 30.31in /  1026.3hPa Calm   3.0mph /  4.8km/h 68% 0.00in /  0mm 165.0 W/m2
08:08 63.0 °F /  17.2 °C 52.7 °F /  11.5 °C 30.31in /  1026.3hPa Calm   1.0mph /  1.6km/h 69% 0.00in /  0mm 171.0 W/m2
08:13 63.1 °F /  17.3 °C 52.3 °F /  11.3 °C 30.31in /  1026.3hPa WNW 0.9mph /  1.4km/h 1.0mph /  1.6km/h 68% 0.00in /  0mm 178.0 W/m2
08:18 63.1 °F /  17.3 °C 52.0 °F /  11.1 °C 30.30in /  1026hPa Calm     67% 0.00in /  0mm 183.0 W/m2
08:24 63.3 °F /  17.4 °C 52.2 °F /  11.2 °C 30.30in /  1026hPa Calm     67% 0.00in /  0mm 181.0 W/m2
08:29 63.3 °F /  17.4 °C 52.2 °F /  11.2 °C 30.30in /  1026hPa WNW 0.9mph /  1.4km/h 1.0mph /  1.6km/h 67% 0.00in /  0mm 183.0 W/m2
08:34 63.5 °F /  17.5 °C 52.3 °F /  11.3 °C 30.30in /  1026hPa WNW 0.9mph /  1.4km/h 2.0mph /  3.2km/h 67% 0.00in /  0mm 193.0 W/m2
08:40 63.5 °F /  17.5 °C 52.3 °F /  11.3 °C 30.30in /  1026hPa Calm   5.0mph /  8km/h 67% 0.00in /  0mm 204.0 W/m2
08:45 63.7 °F /  17.6 °C 52.2 °F /  11.2 °C 30.31in /  1026.3hPa NNE 0.9mph /  1.4km/h 2.0mph /  3.2km/h 66% 0.00in /  0mm 221.0 W/m2
08:50 63.9 °F /  17.7 °C 51.8 °F /  11 °C 30.31in /  1026.3hPa Calm   3.0mph /  4.8km/h 65% 0.00in /  0mm 232.0 W/m2
08:55 64.0 °F /  17.8 °C 52.5 °F /  11.4 °C 30.31in /  1026.3hPa Calm     66% 0.00in /  0mm 236.0 W/m2
09:00 64.2 °F /  17.9 °C 52.7 °F /  11.5 °C 30.31in /  1026.3hPa Calm   1.0mph /  1.6km/h 66% 0.00in /  0mm 239.0 W/m2
09:05 64.6 °F /  18.1 °C 52.5 °F /  11.4 °C 30.31in /  1026.3hPa NNE 2.0mph /  3.2km/h 4.0mph /  6.4km/h 65% 0.00in /  0mm 241.0 W/m2
09:10 64.8 °F /  18.2 °C 52.3 °F /  11.3 °C 30.31in /  1026.3hPa Calm   4.0mph /  6.4km/h 64% 0.00in /  0mm 232.0 W/m2
09:15 64.8 °F /  18.2 °C 52.3 °F /  11.3 °C 30.32in /  1026.6hPa NNW 4.0mph /  6.4km/h 7.0mph /  11.3km/h 64% 0.00in /  0mm 225.0 W/m2
09:20 64.9 °F /  18.3 °C 52.5 °F /  11.4 °C 30.32in /  1026.6hPa NNW 2.0mph /  3.2km/h 7.0mph /  11.3km/h 64% 0.00in /  0mm 218.0 W/m2
09:25 64.9 °F /  18.3 °C 52.5 °F /  11.4 °C 30.32in /  1026.6hPa North 4.9mph /  7.9km/h 6.0mph /  9.7km/h 64% 0.00in /  0mm 221.0 W/m2
09:31 64.9 °F /  18.3 °C 52.5 °F /  11.4 °C 30.31in /  1026.3hPa Calm   3.0mph /  4.8km/h 64% 0.00in /  0mm 227.0 W/m2
09:36 64.9 °F /  18.3 °C 52.5 °F /  11.4 °C 30.31in /  1026.3hPa NNE 2.0mph /  3.2km/h 6.0mph /  9.7km/h 64% 0.00in /  0mm 225.0 W/m2
09:41 65.1 °F /  18.4 °C 52.7 °F /  11.5 °C 30.32in /  1026.6hPa Calm   1.0mph /  1.6km/h 64% 0.00in /  0mm 213.0 W/m2
09:46 65.3 °F /  18.5 °C 52.9 °F /  11.6 °C 30.32in /  1026.6hPa North 2.9mph /  4.7km/h 6.0mph /  9.7km/h 64% 0.00in /  0mm 204.0 W/m2
09:51 65.5 °F /  18.6 °C 53.1 °F /  11.7 °C 30.32in /  1026.6hPa NNW 2.0mph /  3.2km/h 3.0mph /  4.8km/h 64% 0.00in /  0mm 197.0 W/m2
09:56 65.7 °F /  18.7 °C 53.2 °F /  11.8 °C 30.32in /  1026.6hPa NNW 2.9mph /  4.7km/h 3.0mph /  4.8km/h 64% 0.00in /  0mm 197.0 W/m2
10:01 65.7 °F /  18.7 °C 52.7 °F /  11.5 °C 30.32in /  1026.6hPa North 0.9mph /  1.4km/h 4.0mph /  6.4km/h 63% 0.00in /  0mm 209.0 W/m2
10:06 65.8 °F /  18.8 °C 52.9 °F /  11.6 °C 30.32in /  1026.6hPa Calm   4.0mph /  6.4km/h 63% 0.00in /  0mm 223.0 W/m2
10:11 65.8 °F /  18.8 °C 52.9 °F /  11.6 °C 30.32in /  1026.6hPa North 2.9mph /  4.7km/h 5.0mph /  8km/h 63% 0.00in /  0mm 227.0 W/m2
10:16 66.0 °F /  18.9 °C 52.7 °F /  11.5 °C 30.32in /  1026.6hPa Calm   4.0mph /  6.4km/h 62% 0.00in /  0mm 223.0 W/m2
10:21 66.4 °F /  19.1 °C 53.4 °F /  11.9 °C 30.32in /  1026.6hPa NE 0.9mph /  1.4km/h 5.0mph /  8km/h 63% 0.00in /  0mm 253.0 W/m2
10:26 66.6 °F /  19.2 °C 53.1 °F /  11.7 °C 30.32in /  1026.6hPa NNW 2.0mph /  3.2km/h 5.0mph /  8km/h 62% 0.00in /  0mm 308.0 W/m2
10:32 66.7 °F /  19.3 °C 53.2 °F /  11.8 °C 30.32in /  1026.6hPa Calm   7.0mph /  11.3km/h 62% 0.00in /  0mm 424.0 W/m2
10:37 67.3 °F /  19.6 °C 52.9 °F /  11.6 °C 30.32in /  1026.6hPa NE 0.9mph /  1.4km/h 7.0mph /  11.3km/h 60% 0.00in /  0mm 476.0 W/m2
10:42 67.6 °F /  19.8 °C 52.9 °F /  11.6 °C 30.32in /  1026.6hPa ENE 2.0mph /  3.2km/h 7.0mph /  11.3km/h 59% 0.00in /  0mm 543.0 W/m2
10:47 68.2 °F /  20.1 °C 52.9 °F /  11.6 °C 30.32in /  1026.6hPa NNE 2.9mph /  4.7km/h 7.0mph /  11.3km/h 58% 0.00in /  0mm 533.0 W/m2
10:52 68.4 °F /  20.2 °C 52.5 °F /  11.4 °C 30.32in /  1026.6hPa NW 2.9mph /  4.7km/h 6.0mph /  9.7km/h 57% 0.00in /  0mm 501.0 W/m2
10:57 68.5 °F /  20.3 °C 53.2 °F /  11.8 °C 30.32in /  1026.6hPa ENE 0.9mph /  1.4km/h 7.0mph /  11.3km/h 58% 0.00in /  0mm 531.0 W/m2
11:02 68.9 °F /  20.5 °C 53.6 °F /  12 °C 30.31in /  1026.3hPa ESE 0.9mph /  1.4km/h 4.0mph /  6.4km/h 58% 0.00in /  0mm 621.0 W/m2
11:07 69.4 °F /  20.8 °C 53.1 °F /  11.7 °C 30.31in /  1026.3hPa ENE 6.9mph /  11.1km/h 8.0mph /  12.9km/h 56% 0.00in /  0mm 594.0 W/m2
11:13 69.8 °F /  21 °C 52.3 °F /  11.3 °C 30.31in /  1026.3hPa East 0.9mph /  1.4km/h 7.0mph /  11.3km/h 54% 0.00in /  0mm 564.0 W/m2
11:18 70.2 °F /  21.2 °C 52.7 °F /  11.5 °C 30.31in /  1026.3hPa NNE 6.0mph /  9.7km/h 9.0mph /  14.5km/h 54% 0.00in /  0mm 592.0 W/m2
11:23 70.3 °F /  21.3 °C 52.9 °F /  11.6 °C 30.31in /  1026.3hPa Calm   6.0mph /  9.7km/h 54% 0.00in /  0mm 468.0 W/m2
11:28 70.5 °F /  21.4 °C 52.0 °F /  11.1 °C 30.31in /  1026.3hPa NE 2.9mph /  4.7km/h 7.0mph /  11.3km/h 52% 0.00in /  0mm 383.0 W/m2
11:38 70.5 °F /  21.4 °C 52.0 °F /  11.1 °C 30.32in /  1026.6hPa NE 2.0mph /  3.2km/h 12.0mph /  19.3km/h 52% 0.00in /  0mm 397.0 W/m2
11:43 70.5 °F /  21.4 °C 52.0 °F /  11.1 °C 30.32in /  1026.6hPa NE 2.9mph /  4.7km/h 4.0mph /  6.4km/h 52% 0.00in /  0mm 343.0 W/m2
11:48 70.5 °F /  21.4 °C 52.0 °F /  11.1 °C 30.31in /  1026.3hPa NNW 2.0mph /  3.2km/h 6.0mph /  9.7km/h 52% 0.00in /  0mm 299.0 W/m2
11:53 70.5 °F /  21.4 °C 52.5 °F /  11.4 °C 30.31in /  1026.3hPa NNE 2.0mph /  3.2km/h 3.0mph /  4.8km/h 53% 0.00in /  0mm 264.0 W/m2
11:59 70.5 °F /  21.4 °C 51.4 °F /  10.8 °C 30.31in /  1026.3hPa NE 0.9mph /  1.4km/h 8.0mph /  12.9km/h 51% 0.00in /  0mm 246.0 W/m2
12:04 70.3 °F /  21.3 °C 51.8 °F /  11 °C 30.31in /  1026.3hPa NNE 2.9mph /  4.7km/h 4.0mph /  6.4km/h 52% 0.00in /  0mm 250.0 W/m2
12:09 70.3 °F /  21.3 °C 51.8 °F /  11 °C 30.31in /  1026.3hPa NNE 4.0mph /  6.4km/h 4.0mph /  6.4km/h 52% 0.00in /  0mm 285.0 W/m2
12:14 70.3 °F /  21.3 °C 52.9 °F /  11.6 °C 30.30in /  1026hPa NNE 2.9mph /  4.7km/h 6.0mph /  9.7km/h 54% 0.00in /  0mm 373.0 W/m2
12:19 70.3 °F /  21.3 °C 52.9 °F /  11.6 °C 30.30in /  1026hPa NE 4.0mph /  6.4km/h 10.0mph /  16.1km/h 54% 0.00in /  0mm 497.0 W/m2
12:24 70.5 °F /  21.4 °C 52.5 °F /  11.4 °C 30.30in /  1026hPa East 0.9mph /  1.4km/h 7.0mph /  11.3km/h 53% 0.00in /  0mm 710.0 W/m2
12:29 71.1 °F /  21.7 °C 53.1 °F /  11.7 °C 30.30in /  1026hPa NNW 2.0mph /  3.2km/h 5.0mph /  8km/h 53% 0.00in /  0mm 740.0 W/m2
12:34 71.8 °F /  22.1 °C 53.2 °F /  11.8 °C 30.30in /  1026hPa East 6.0mph /  9.7km/h 8.0mph /  12.9km/h 52% 0.00in /  0mm 577.0 W/m2
12:39 72.0 °F /  22.2 °C 53.4 °F /  11.9 °C 30.30in /  1026hPa ENE 6.0mph /  9.7km/h 12.0mph /  19.3km/h 52% 0.00in /  0mm 643.0 W/m2
12:44 72.1 °F /  22.3 °C 53.6 °F /  12 °C 30.30in /  1026hPa NNE 2.0mph /  3.2km/h 9.0mph /  14.5km/h 52% 0.00in /  0mm 765.0 W/m2
12:49 72.5 °F /  22.5 °C 53.4 °F /  11.9 °C 30.30in /  1026hPa NW 6.9mph /  11.1km/h 7.0mph /  11.3km/h 51% 0.00in /  0mm 622.0 W/m2
12:54 73.0 °F /  22.8 °C 53.2 °F /  11.8 °C 30.30in /  1026hPa NE 6.0mph /  9.7km/h 7.0mph /  11.3km/h 50% 0.00in /  0mm 712.0 W/m2
13:00 73.0 °F /  22.8 °C 53.2 °F /  11.8 °C 30.30in /  1026hPa ENE 6.0mph /  9.7km/h 9.0mph /  14.5km/h 50% 0.00in /  0mm 680.0 W/m2
13:05 73.0 °F /  22.8 °C 53.8 °F /  12.1 °C 30.30in /  1026hPa SE 6.0mph /  9.7km/h 8.0mph /  12.9km/h 51% 0.00in /  0mm 612.0 W/m2
13:10 73.4 °F /  23 °C 53.6 °F /  12 °C 30.30in /  1026hPa NNW 2.9mph /  4.7km/h 4.0mph /  6.4km/h 50% 0.00in /  0mm 729.0 W/m2
13:15 73.9 °F /  23.3 °C 54.7 °F /  12.6 °C 30.30in /  1026hPa NE 2.9mph /  4.7km/h 7.0mph /  11.3km/h 51% 0.00in /  0mm 580.0 W/m2
13:20 74.3 °F /  23.5 °C 54.5 °F /  12.5 °C 30.30in /  1026hPa NNE 2.9mph /  4.7km/h 10.0mph /  16.1km/h 50% 0.00in /  0mm 582.0 W/m2
13:25 74.8 °F /  23.8 °C 53.8 °F /  12.1 °C 30.30in /  1026hPa ENE 0.9mph /  1.4km/h 6.0mph /  9.7km/h 48% 0.00in /  0mm 582.0 W/m2
13:30 75.4 °F /  24.1 °C 54.3 °F /  12.4 °C 30.30in /  1026hPa East 2.0mph /  3.2km/h 6.0mph /  9.7km/h 48% 0.00in /  0mm 401.0 W/m2
13:35 75.6 °F /  24.2 °C 54.5 °F /  12.5 °C 30.30in /  1026hPa North 0.9mph /  1.4km/h 3.0mph /  4.8km/h 48% 0.00in /  0mm 439.0 W/m2
13:40 75.6 °F /  24.2 °C 54.5 °F /  12.5 °C 30.29in /  1025.6hPa NNW 0.9mph /  1.4km/h 5.0mph /  8km/h 48% 0.00in /  0mm 425.0 W/m2
13:46 75.7 °F /  24.3 °C 54.7 °F /  12.6 °C 30.30in /  1026hPa NNW 4.0mph /  6.4km/h 4.0mph /  6.4km/h 48% 0.00in /  0mm 591.0 W/m2
13:51 75.7 °F /  24.3 °C 53.4 °F /  11.9 °C 30.29in /  1025.6hPa NW 2.0mph /  3.2km/h 8.0mph /  12.9km/h 46% 0.00in /  0mm 533.0 W/m2
13:56 75.6 °F /  24.2 °C 54.5 °F /  12.5 °C 30.29in /  1025.6hPa West 2.0mph /  3.2km/h 6.0mph /  9.7km/h 48% 0.00in /  0mm 455.0 W/m2
14:01 75.6 °F /  24.2 °C 54.5 °F /  12.5 °C 30.29in /  1025.6hPa NW 2.0mph /  3.2km/h 2.0mph /  3.2km/h 48% 0.00in /  0mm 835.0 W/m2
14:06 75.7 °F /  24.3 °C 54.7 °F /  12.6 °C 30.29in /  1025.6hPa NE 2.9mph /  4.7km/h 6.0mph /  9.7km/h 48% 0.00in /  0mm 431.0 W/m2
14:11 75.7 °F /  24.3 °C 54.7 °F /  12.6 °C 30.29in /  1025.6hPa NNW 10.1mph /  16.3km/h 10.1mph /  16.3km/h 48% 0.00in /  0mm 810.0 W/m2
14:16 76.3 °F /  24.6 °C 54.5 °F /  12.5 °C 30.29in /  1025.6hPa North 2.9mph /  4.7km/h 7.0mph /  11.3km/h 47% 0.00in /  0mm 573.0 W/m2
14:21 76.5 °F /  24.7 °C 54.1 °F /  12.3 °C 30.29in /  1025.6hPa Calm   7.0mph /  11.3km/h 46% 0.00in /  0mm 401.0 W/m2
14:26 76.1 °F /  24.5 °C 53.8 °F /  12.1 °C 30.29in /  1025.6hPa NNE 4.0mph /  6.4km/h 8.0mph /  12.9km/h 46% 0.00in /  0mm 301.0 W/m2
14:31 75.7 °F /  24.3 °C 53.4 °F /  11.9 °C 30.29in /  1025.6hPa Calm   4.0mph /  6.4km/h 46% 0.00in /  0mm 318.0 W/m2
14:37 75.9 °F /  24.4 °C 53.1 °F /  11.7 °C 30.29in /  1025.6hPa Calm   7.0mph /  11.3km/h 45% 0.00in /  0mm 914.0 W/m2
14:42 76.5 °F /  24.7 °C 52.9 °F /  11.6 °C 30.28in /  1025.3hPa NNE 4.9mph /  7.9km/h 8.0mph /  12.9km/h 44% 0.00in /  0mm 1013.0 W/m2
14:47 77.4 °F /  25.2 °C 53.1 °F /  11.7 °C 30.29in /  1025.6hPa North 4.9mph /  7.9km/h 10.0mph /  16.1km/h 43% 0.00in /  0mm 1018.0 W/m2
14:52 78.1 °F /  25.6 °C 53.8 °F /  12.1 °C 30.28in /  1025.3hPa WSW 4.9mph /  7.9km/h 7.0mph /  11.3km/h 43% 0.00in /  0mm 893.0 W/m2
14:57 78.4 °F /  25.8 °C 53.4 °F /  11.9 °C 30.28in /  1025.3hPa West 2.9mph /  4.7km/h 6.0mph /  9.7km/h 42% 0.00in /  0mm 896.0 W/m2
15:02 79.2 °F /  26.2 °C 53.4 °F /  11.9 °C 30.28in /  1025.3hPa WNW 4.0mph /  6.4km/h 7.0mph /  11.3km/h 41% 0.00in /  0mm 974.0 W/m2
15:07 79.9 °F /  26.6 °C 53.4 °F /  11.9 °C 30.28in /  1025.3hPa NNW 8.9mph /  14.3km/h 9.0mph /  14.5km/h 40% 0.00in /  0mm 881.0 W/m2
15:12 80.1 °F /  26.7 °C 53.6 °F /  12 °C 30.28in /  1025.3hPa North 4.9mph /  7.9km/h 7.0mph /  11.3km/h 40% 0.00in /  0mm 962.0 W/m2
15:17 80.1 °F /  26.7 °C 52.9 °F /  11.6 °C 30.28in /  1025.3hPa NNW 4.9mph /  7.9km/h 11.0mph /  17.7km/h 39% 0.00in /  0mm 937.0 W/m2
15:23 80.2 °F /  26.8 °C 53.8 °F /  12.1 °C 30.28in /  1025.3hPa North 0.9mph /  1.4km/h 7.0mph /  11.3km/h 40% 0.00in /  0mm 853.0 W/m2
15:28 80.6 °F /  27 °C 53.4 °F /  11.9 °C 30.28in /  1025.3hPa NNW 4.9mph /  7.9km/h 7.0mph /  11.3km/h 39% 0.00in /  0mm 863.0 W/m2
15:33 81.1 °F /  27.3 °C 53.1 °F /  11.7 °C 30.28in /  1025.3hPa NNW 2.9mph /  4.7km/h 5.0mph /  8km/h 38% 0.00in /  0mm 872.0 W/m2
15:38 81.7 °F /  27.6 °C 53.6 °F /  12 °C 30.28in /  1025.3hPa NNE 2.0mph /  3.2km/h 9.0mph /  14.5km/h 38% 0.00in /  0mm 912.0 W/m2
15:43 81.5 °F /  27.5 °C 53.4 °F /  11.9 °C 30.28in /  1025.3hPa North 8.1mph /  13km/h 11.0mph /  17.7km/h 38% 0.00in /  0mm 891.0 W/m2
15:48 80.1 °F /  26.7 °C 53.6 °F /  12 °C 30.28in /  1025.3hPa NE 11.0mph /  17.7km/h 18.0mph /  29km/h 40% 0.00in /  0mm 858.0 W/m2
15:53 79.0 °F /  26.1 °C 53.2 °F /  11.8 °C 30.28in /  1025.3hPa NNW 4.9mph /  7.9km/h 7.0mph /  11.3km/h 41% 0.00in /  0mm 860.0 W/m2
15:58 79.0 °F /  26.1 °C 54.0 °F /  12.2 °C 30.28in /  1025.3hPa NE 6.0mph /  9.7km/h 9.0mph /  14.5km/h 42% 0.00in /  0mm 461.0 W/m2
16:03 78.4 °F /  25.8 °C 53.4 °F /  11.9 °C 30.29in /  1025.6hPa NNE 6.0mph /  9.7km/h 9.0mph /  14.5km/h 42% 0.00in /  0mm 547.0 W/m2
16:09 78.1 °F /  25.6 °C 53.1 °F /  11.7 °C 30.28in /  1025.3hPa NNW 8.9mph /  14.3km/h 10.0mph /  16.1km/h 42% 0.00in /  0mm 782.0 W/m2
16:14 78.4 °F /  25.8 °C 52.7 °F /  11.5 °C 30.28in /  1025.3hPa North 6.9mph /  11.1km/h 8.0mph /  12.9km/h 41% 0.00in /  0mm 745.0 W/m2
16:19 79.0 °F /  26.1 °C 52.5 °F /  11.4 °C 30.28in /  1025.3hPa NW 6.0mph /  9.7km/h 9.0mph /  14.5km/h 40% 0.00in /  0mm 749.0 W/m2
16:24 79.3 °F /  26.3 °C 52.2 °F /  11.2 °C 30.28in /  1025.3hPa Calm   3.0mph /  4.8km/h 39% 0.00in /  0mm 671.0 W/m2
16:29 80.2 °F /  26.8 °C 52.3 °F /  11.3 °C 30.28in /  1025.3hPa NNW 6.0mph /  9.7km/h 6.0mph /  9.7km/h 38% 0.00in /  0mm 615.0 W/m2
16:34 80.6 °F /  27 °C 51.3 °F /  10.7 °C 30.28in /  1025.3hPa North 4.9mph /  7.9km/h 10.0mph /  16.1km/h 36% 0.00in /  0mm 598.0 W/m2
16:39 80.4 °F /  26.9 °C 51.1 °F /  10.6 °C 30.28in /  1025.3hPa NNE 2.9mph /  4.7km/h 5.0mph /  8km/h 36% 0.00in /  0mm 612.0 W/m2
16:45 80.2 °F /  26.8 °C 51.6 °F /  10.9 °C 30.28in /  1025.3hPa NW 10.1mph /  16.3km/h 16.0mph /  25.7km/h 37% 0.00in /  0mm 200.0 W/m2
16:50 79.0 °F /  26.1 °C 51.3 °F /  10.7 °C 30.28in /  1025.3hPa North 6.9mph /  11.1km/h 8.0mph /  12.9km/h 38% 0.00in /  0mm 193.0 W/m2
16:55 78.3 °F /  25.7 °C 52.0 °F /  11.1 °C 30.28in /  1025.3hPa North 2.9mph /  4.7km/h 5.0mph /  8km/h 40% 0.00in /  0mm 561.0 W/m2
17:00 78.3 °F /  25.7 °C 51.3 °F /  10.7 °C 30.28in /  1025.3hPa NNW 4.0mph /  6.4km/h 7.0mph /  11.3km/h 39% 0.00in /  0mm 473.0 W/m2
17:05 78.3 °F /  25.7 °C 51.3 °F /  10.7 °C 30.28in /  1025.3hPa WNW 0.9mph /  1.4km/h 6.0mph /  9.7km/h 39% 0.00in /  0mm 526.0 W/m2
17:10 79.2 °F /  26.2 °C 50.7 °F /  10.4 °C 30.28in /  1025.3hPa NNW 2.9mph /  4.7km/h 10.0mph /  16.1km/h 37% 0.00in /  0mm 475.0 W/m2
17:15 79.5 °F /  26.4 °C 51.6 °F /  10.9 °C 30.28in /  1025.3hPa NW 4.0mph /  6.4km/h 10.0mph /  16.1km/h 38% 0.00in /  0mm 497.0 W/m2
17:20 79.9 °F /  26.6 °C 52.7 °F /  11.5 °C 30.28in /  1025.3hPa NE 4.9mph /  7.9km/h 9.0mph /  14.5km/h 39% 0.00in /  0mm 475.0 W/m2
17:25 79.7 °F /  26.5 °C 50.4 °F /  10.2 °C 30.28in /  1025.3hPa WNW 0.9mph /  1.4km/h 9.0mph /  14.5km/h 36% 0.00in /  0mm 269.0 W/m2
17:27 79.5 °F /  26.4 °C 50.9 °F /  10.5 °C 30.28in /  1025.3hPa NNW 6.9mph /  11.1km/h 7.0mph /  11.3km/h 37% 0.00in /  0mm 336.0 W/m2
17:32 79.2 °F /  26.2 °C 52.7 °F /  11.5 °C 30.28in /  1025.3hPa WNW 2.0mph /  3.2km/h 10.0mph /  16.1km/h 40% 0.00in /  0mm 399.0 W/m2
17:37 78.6 °F /  25.9 °C 52.3 °F /  11.3 °C 30.29in /  1025.6hPa NNW 6.0mph /  9.7km/h 9.0mph /  14.5km/h 40% 0.00in /  0mm 357.0 W/m2
17:43 78.1 °F /  25.6 °C 52.5 °F /  11.4 °C 30.28in /  1025.3hPa NNW 2.9mph /  4.7km/h 9.0mph /  14.5km/h 41% 0.00in /  0mm 318.0 W/m2
17:58 77.4 °F /  25.2 °C 51.8 °F /  11 °C 30.29in /  1025.6hPa NNW 0.9mph /  1.4km/h 2.0mph /  3.2km/h 41% 0.00in /  0mm 234.0 W/m2
18:03 77.5 °F /  25.3 °C 52.0 °F /  11.1 °C 30.29in /  1025.6hPa Calm   4.0mph /  6.4km/h 41% 0.00in /  0mm 209.0 W/m2
18:08 77.5 °F /  25.3 °C 52.7 °F /  11.5 °C 30.29in /  1025.6hPa NNW 4.0mph /  6.4km/h 5.0mph /  8km/h 42% 0.00in /  0mm 121.0 W/m2
18:13 77.4 °F /  25.2 °C 52.5 °F /  11.4 °C 30.29in /  1025.6hPa North 4.0mph /  6.4km/h 4.0mph /  6.4km/h 42% 0.00in /  0mm 104.0 W/m2
18:24 76.5 °F /  24.7 °C 51.6 °F /  10.9 °C 30.29in /  1025.6hPa Calm   6.0mph /  9.7km/h 42% 0.00in /  0mm 107.0 W/m2
18:29 76.5 °F /  24.7 °C 51.1 °F /  10.6 °C 30.29in /  1025.6hPa NW 6.0mph /  9.7km/h 7.0mph /  11.3km/h 41% 0.00in /  0mm 69.0 W/m2
18:34 76.1 °F /  24.5 °C 51.3 °F /  10.7 °C 30.29in /  1025.6hPa NNW 2.9mph /  4.7km/h 8.0mph /  12.9km/h 42% 0.00in /  0mm 53.0 W/m2
18:39 75.6 °F /  24.2 °C 51.4 °F /  10.8 °C 30.29in /  1025.6hPa North 2.0mph /  3.2km/h 6.0mph /  9.7km/h 43% 0.00in /  0mm 33.0 W/m2
18:44 75.0 °F /  23.9 °C 51.6 °F /  10.9 °C 30.29in /  1025.6hPa North 0.9mph /  1.4km/h 5.0mph /  8km/h 44% 0.00in /  0mm 14.0 W/m2
18:49 74.7 °F /  23.7 °C 52.0 °F /  11.1 °C 30.29in /  1025.6hPa NNW 2.0mph /  3.2km/h 5.0mph /  8km/h 45% 0.00in /  0mm 12.0 W/m2
18:54 74.3 °F /  23.5 °C 52.2 °F /  11.2 °C 30.30in /  1026hPa North 0.9mph /  1.4km/h 5.0mph /  8km/h 46% 0.00in /  0mm 12.0 W/m2
18:59 74.1 °F /  23.4 °C 54.3 °F /  12.4 °C 30.30in /  1026hPa Calm   7.0mph /  11.3km/h 50% 0.00in /  0mm 5.0 W/m2
19:04 73.8 °F /  23.2 °C 55.0 °F /  12.8 °C 30.30in /  1026hPa NNE 2.9mph /  4.7km/h 8.0mph /  12.9km/h 52% 0.00in /  0mm 0.0 W/m2
19:09 72.9 °F /  22.7 °C 55.2 °F /  12.9 °C 30.31in /  1026.3hPa North 8.9mph /  14.3km/h 10.0mph /  16.1km/h 54% 0.00in /  0mm 0.0 W/m2
19:15 72.1 °F /  22.3 °C 55.0 °F /  12.8 °C 30.31in /  1026.3hPa NNE 6.9mph /  11.1km/h 10.0mph /  16.1km/h 55% 0.00in /  0mm 0.0 W/m2
19:20 71.4 °F /  21.9 °C 54.9 °F /  12.7 °C 30.32in /  1026.6hPa NNE 8.9mph /  14.3km/h 11.0mph /  17.7km/h 56% 0.00in /  0mm 0.0 W/m2
19:25 71.1 °F /  21.7 °C 55.0 °F /  12.8 °C 30.32in /  1026.6hPa North 4.9mph /  7.9km/h 9.0mph /  14.5km/h 57% 0.00in /  0mm 0.0 W/m2
19:30 70.9 °F /  21.6 °C 55.4 °F /  13 °C 30.32in /  1026.6hPa NE 2.0mph /  3.2km/h 9.0mph /  14.5km/h 58% 0.00in /  0mm 0.0 W/m2
19:35 70.5 °F /  21.4 °C 55.0 °F /  12.8 °C 30.32in /  1026.6hPa ENE 2.0mph /  3.2km/h 11.0mph /  17.7km/h 58% 0.00in /  0mm 0.0 W/m2
19:40 70.2 °F /  21.2 °C 55.2 °F /  12.9 °C 30.32in /  1026.6hPa ENE 2.9mph /  4.7km/h 5.0mph /  8km/h 59% 0.00in /  0mm 0.0 W/m2
19:45 70.0 °F /  21.1 °C 55.0 °F /  12.8 °C 30.32in /  1026.6hPa North 0.9mph /  1.4km/h 6.0mph /  9.7km/h 59% 0.00in /  0mm 0.0 W/m2
19:51 69.6 °F /  20.9 °C 54.7 °F /  12.6 °C 30.33in /  1027hPa NE 4.9mph /  7.9km/h 8.0mph /  12.9km/h 59% 0.00in /  0mm 0.0 W/m2
19:56 69.4 °F /  20.8 °C 54.9 °F /  12.7 °C 30.33in /  1027hPa ENE 6.0mph /  9.7km/h 7.0mph /  11.3km/h 60% 0.00in /  0mm 0.0 W/m2
20:01 69.1 °F /  20.6 °C 54.7 °F /  12.6 °C 30.33in /  1027hPa ENE 4.9mph /  7.9km/h 8.0mph /  12.9km/h 60% 0.00in /  0mm 0.0 W/m2
20:06 68.7 °F /  20.4 °C 54.3 °F /  12.4 °C 30.34in /  1027.3hPa ENE 2.9mph /  4.7km/h 7.0mph /  11.3km/h 60% 0.00in /  0mm 0.0 W/m2
20:12 68.4 °F /  20.2 °C 54.3 °F /  12.4 °C 30.34in /  1027.3hPa NE 0.9mph /  1.4km/h 6.0mph /  9.7km/h 61% 0.00in /  0mm 0.0 W/m2
20:17 68.4 °F /  20.2 °C 54.9 °F /  12.7 °C 30.34in /  1027.3hPa NE 2.9mph /  4.7km/h 5.0mph /  8km/h 62% 0.00in /  0mm 0.0 W/m2
20:22 68.2 °F /  20.1 °C 54.7 °F /  12.6 °C 30.34in /  1027.3hPa ENE 0.9mph /  1.4km/h 6.0mph /  9.7km/h 62% 0.00in /  0mm 0.0 W/m2
20:27 67.8 °F /  19.9 °C 54.3 °F /  12.4 °C 30.35in /  1027.7hPa ENE 0.9mph /  1.4km/h 2.0mph /  3.2km/h 62% 0.00in /  0mm 0.0 W/m2
20:32 67.8 °F /  19.9 °C 54.3 °F /  12.4 °C 30.35in /  1027.7hPa NNE 2.9mph /  4.7km/h 5.0mph /  8km/h 62% 0.00in /  0mm 0.0 W/m2
20:37 67.6 °F /  19.8 °C 54.1 °F /  12.3 °C 30.35in /  1027.7hPa ESE 0.9mph /  1.4km/h 3.0mph /  4.8km/h 62% 0.00in /  0mm 0.0 W/m2
20:42 67.5 °F /  19.7 °C 54.0 °F /  12.2 °C 30.35in /  1027.7hPa Calm   5.0mph /  8km/h 62% 0.00in /  0mm 0.0 W/m2
20:48 67.5 °F /  19.7 °C 54.0 °F /  12.2 °C 30.35in /  1027.7hPa ESE 2.9mph /  4.7km/h 6.0mph /  9.7km/h 62% 0.00in /  0mm 0.0 W/m2
20:53 67.3 °F /  19.6 °C 54.3 °F /  12.4 °C 30.35in /  1027.7hPa Calm   4.0mph /  6.4km/h 63% 0.00in /  0mm 0.0 W/m2
20:58 67.3 °F /  19.6 °C 54.3 °F /  12.4 °C 30.35in /  1027.7hPa Calm   2.0mph /  3.2km/h 63% 0.00in /  0mm 0.0 W/m2
21:09 66.9 °F /  19.4 °C 54.3 °F /  12.4 °C 30.35in /  1027.7hPa Calm   6.0mph /  9.7km/h 64% 0.00in /  0mm 0.0 W/m2
21:14 66.7 °F /  19.3 °C 54.1 °F /  12.3 °C 30.35in /  1027.7hPa North 2.0mph /  3.2km/h 3.0mph /  4.8km/h 64% 0.00in /  0mm 0.0 W/m2
21:19 66.6 °F /  19.2 °C 54.5 °F /  12.5 °C 30.35in /  1027.7hPa ESE 0.9mph /  1.4km/h 4.0mph /  6.4km/h 65% 0.00in /  0mm 0.0 W/m2
21:24 66.6 °F /  19.2 °C 54.5 °F /  12.5 °C 30.35in /  1027.7hPa Calm   2.0mph /  3.2km/h 65% 0.00in /  0mm 0.0 W/m2
21:29 66.4 °F /  19.1 °C 54.7 °F /  12.6 °C 30.35in /  1027.7hPa ENE 2.0mph /  3.2km/h 6.0mph /  9.7km/h 66% 0.00in /  0mm 0.0 W/m2
21:34 66.4 °F /  19.1 °C 54.7 °F /  12.6 °C 30.35in /  1027.7hPa Calm   3.0mph /  4.8km/h 66% 0.00in /  0mm 0.0 W/m2
21:39 66.0 °F /  18.9 °C 54.3 °F /  12.4 °C 30.35in /  1027.7hPa NE 2.0mph /  3.2km/h 5.0mph /  8km/h 66% 0.00in /  0mm 0.0 W/m2
21:45 66.0 °F /  18.9 °C 54.7 °F /  12.6 °C 30.35in /  1027.7hPa ENE 2.9mph /  4.7km/h 3.0mph /  4.8km/h 67% 0.00in /  0mm 0.0 W/m2
21:55 65.7 °F /  18.7 °C 54.9 °F /  12.7 °C 30.35in /  1027.7hPa Calm   3.0mph /  4.8km/h 68% 0.00in /  0mm 0.0 W/m2
22:00 65.7 °F /  18.7 °C 54.9 °F /  12.7 °C 30.35in /  1027.7hPa East 0.9mph /  1.4km/h 2.0mph /  3.2km/h 68% 0.00in /  0mm 0.0 W/m2
22:05 65.5 °F /  18.6 °C 54.7 °F /  12.6 °C 30.35in /  1027.7hPa ENE 2.0mph /  3.2km/h 3.0mph /  4.8km/h 68% 0.00in /  0mm 0.0 W/m2
22:10 65.3 °F /  18.5 °C 54.9 °F /  12.7 °C 30.35in /  1027.7hPa Calm   3.0mph /  4.8km/h 69% 0.00in /  0mm 0.0 W/m2
22:15 65.1 °F /  18.4 °C 54.7 °F /  12.6 °C 30.35in /  1027.7hPa NE 0.9mph /  1.4km/h 1.0mph /  1.6km/h 69% 0.00in /  0mm 0.0 W/m2
22:20 65.1 °F /  18.4 °C 54.7 °F /  12.6 °C 30.35in /  1027.7hPa Calm   4.0mph /  6.4km/h 69% 0.00in /  0mm 0.0 W/m2
22:25 64.9 °F /  18.3 °C 54.9 °F /  12.7 °C 30.35in /  1027.7hPa NNE 0.9mph /  1.4km/h 3.0mph /  4.8km/h 70% 0.00in /  0mm 0.0 W/m2
22:30 64.9 °F /  18.3 °C 54.9 °F /  12.7 °C 30.35in /  1027.7hPa Calm   1.0mph /  1.6km/h 70% 0.00in /  0mm 0.0 W/m2
22:36 64.8 °F /  18.2 °C 54.7 °F /  12.6 °C 30.35in /  1027.7hPa East 0.9mph /  1.4km/h 4.0mph /  6.4km/h 70% 0.00in /  0mm 0.0 W/m2
22:41 64.8 °F /  18.2 °C 55.2 °F /  12.9 °C 30.35in /  1027.7hPa ESE 2.9mph /  4.7km/h 5.0mph /  8km/h 71% 0.00in /  0mm 0.0 W/m2
22:46 64.6 °F /  18.1 °C 55.0 °F /  12.8 °C 30.35in /  1027.7hPa Calm   4.0mph /  6.4km/h 71% 0.00in /  0mm 0.0 W/m2
22:51 64.4 °F /  18 °C 54.9 °F /  12.7 °C 30.35in /  1027.7hPa NE 4.0mph /  6.4km/h 7.0mph /  11.3km/h 71% 0.00in /  0mm 0.0 W/m2
22:56 64.2 °F /  17.9 °C 54.7 °F /  12.6 °C 30.35in /  1027.7hPa Calm   1.0mph /  1.6km/h 71% 0.00in /  0mm 0.0 W/m2
23:01 64.2 °F /  17.9 °C 55.0 °F /  12.8 °C 30.35in /  1027.7hPa ENE 0.9mph /  1.4km/h 3.0mph /  4.8km/h 72% 0.00in /  0mm 0.0 W/m2
23:07 64.2 °F /  17.9 °C 55.0 °F /  12.8 °C 30.35in /  1027.7hPa ESE 0.9mph /  1.4km/h 4.0mph /  6.4km/h 72% 0.00in /  0mm 0.0 W/m2
23:12 64.0 °F /  17.8 °C 55.2 °F /  12.9 °C 30.35in /  1027.7hPa Calm   3.0mph /  4.8km/h 73% 0.00in /  0mm 0.0 W/m2
23:17 64.0 °F /  17.8 °C 55.2 °F /  12.9 °C 30.35in /  1027.7hPa East 2.0mph /  3.2km/h 3.0mph /  4.8km/h 73% 0.00in /  0mm 0.0 W/m2
23:22 64.0 °F /  17.8 °C 55.2 °F /  12.9 °C 30.35in /  1027.7hPa Calm   3.0mph /  4.8km/h 73% 0.00in /  0mm 0.0 W/m2
23:28 63.9 °F /  17.7 °C 55.0 °F /  12.8 °C 30.35in /  1027.7hPa NE 0.9mph /  1.4km/h 3.0mph /  4.8km/h 73% 0.00in /  0mm 0.0 W/m2
23:33 63.9 °F /  17.7 °C 55.0 °F /  12.8 °C 30.35in /  1027.7hPa NE 0.9mph /  1.4km/h 5.0mph /  8km/h 73% 0.00in /  0mm 0.0 W/m2
23:38 63.7 °F /  17.6 °C 55.2 °F /  12.9 °C 30.36in /  1028hPa Calm   3.0mph /  4.8km/h 74% 0.00in /  0mm 0.0 W/m2
23:43 63.7 °F /  17.6 °C 55.2 °F /  12.9 °C 30.36in /  1028hPa ENE 0.9mph /  1.4km/h 2.0mph /  3.2km/h 74% 0.00in /  0mm 0.0 W/m2
23:48 63.5 °F /  17.5 °C 55.0 °F /  12.8 °C 30.36in /  1028hPa Calm   1.0mph /  1.6km/h 74% 0.00in /  0mm 0.0 W/m2
23:53 63.3 °F /  17.4 °C 55.2 °F /  12.9 °C 30.36in /  1028hPa Calm   1.0mph /  1.6km/h 75% 0.00in /  0mm 0.0 W/m2
Olympia, Windhoek, Namibia
Compliments of Weather Underground - 3.25 mb